Time;durP1;ratioP1;P1;durP2;ratioP2;P2;SDS_P1;SDS_P2;PMS_P1;PMS_P2;Temp;Humidity;BMP_temperature;BMP_pressure;BME280_temperature;BME280_humidity;BME280_pressure;Samples;Min_cycle;Max_cycle;Signal;HPM_P1;HPM_P2
2022/06/23 00:00:08;;;;;;;;;;;;;;;18.82;83.37;96557.19;30001;982;1882;-60
2022/06/23 00:00:40;;;;;;;;;;;;;;;18.83;83.54;96561.53;30001;982;1882;-72
2022/06/23 00:01:17;;;;;;;;;;;;;;;18.84;83.14;96554.91;30001;982;1882;-60
2022/06/23 00:01:55;;;;;;;;;;;;;;;18.91;82.86;96555.06;30001;982;1883;-59
2022/06/23 00:02:28;;;;;;;;;;;;;;;18.91;82.81;96558.63;30001;983;1783;-60
2022/06/23 00:03:00;;;;;;;;;;;;;;;18.90;82.93;96554.28;30001;983;1882;-61
2022/06/23 00:03:34;;;;;;;;;;;;;;;18.88;82.83;96561.28;30001;983;1882;-59
2022/06/23 00:04:04;;;;;;;;;;;;;;;18.86;83.10;96558.09;30001;976;1883;-60
2022/06/23 00:04:37;;;;;;;;;;;;;;;18.84;83.14;96563.94;30001;983;1873;-70
2022/06/23 00:05:14;;;;;;;;;;;;;;;18.82;83.22;96551.69;30001;983;1882;-59
2022/06/23 00:05:48;;;;;;;;;;;;;;;18.81;83.43;96552.84;30001;983;1882;-59
2022/06/23 00:06:26;;;;;;;;;;;;;;;18.81;83.27;96561.09;30001;982;1882;-60
2022/06/23 00:06:59;;;;;;;;;;;;;;;18.81;83.27;96556.41;30001;982;1882;-69
2022/06/23 00:07:32;;;;;;;;;;;;;;;18.82;83.14;96551.69;30001;982;1883;-60
2022/06/23 00:08:05;;;;;;;;;;;;;;;18.83;82.89;96550.53;30001;982;1882;-60
2022/06/23 00:08:44;;;;;;;;;;;;;;;18.82;83.03;96548.94;30001;982;1882;-61
2022/06/23 00:09:29;;;;;;;;;;;;;;;18.80;83.43;96556.75;30001;963;1775;-60
2022/06/23 00:10:01;;;;;;;;;;;;;;;18.79;83.59;96552.41;30001;983;1873;-61
2022/06/23 00:10:44;;;;;;;;;;;;;;;18.78;83.12;96551.59;30001;960;1807;-60
2022/06/23 00:11:20;;;;;;;;;;;;;;;18.78;83.14;96556.31;30001;983;1882;-60
2022/06/23 00:11:55;;;;;;;;;;;;;;;18.75;83.29;96552.31;30001;983;1882;-60
2022/06/23 00:12:38;;;;;;;;;;;;;;;18.75;83.26;96550.38;30001;983;1882;-60
2022/06/23 00:13:32;;;;;;;;;;;;;;;18.73;83.39;96555.41;30001;983;1882;-59
2022/06/23 00:14:11;;;;;;;;;;;;;;;18.71;83.43;96552.22;30001;982;1878;-60
2022/06/23 00:14:46;;;;;;;;;;;;;;;18.69;83.73;96560.03;30001;982;1869;-61
2022/06/23 00:15:28;;;;;;;;;;;;;;;18.67;83.99;96561.53;30001;982;1873;-60
2022/06/23 00:15:59;;;;;;;;;;;;;;;18.64;84.13;96554.81;30001;982;1882;-59
2022/06/23 00:16:30;;;;;;;;;;;;;;;18.63;83.97;96555.94;30001;982;1882;-60
2022/06/23 00:17:36;;;;;;;;;;;;;;;18.63;83.94;96550.47;30001;982;1883;-59
2022/06/23 00:18:16;;;;;;;;;;;;;;;18.69;83.61;96553.75;30001;983;1877;-59
2022/06/23 00:18:47;;;;;;;;;;;;;;;18.69;83.44;96553.75;30001;983;1882;-60
2022/06/23 00:19:18;;;;;;;;;;;;;;;18.69;83.53;96560.03;30001;983;1882;-60
2022/06/23 00:19:49;;;;;;;;;;;;;;;18.69;83.63;96551.00;30001;983;1869;-59
2022/06/23 00:20:45;;;;;;;;;;;;;;;18.67;83.64;96551.34;30001;983;1873;-59
2022/06/23 00:21:22;;;;;;;;;;;;;;;18.69;83.80;96548.25;30001;983;1865;-59
2022/06/23 00:21:56;;;;;;;;;;;;;;;18.67;83.74;96548.59;30001;982;1860;-60
2022/06/23 00:22:29;;;;;;;;;;;;;;;18.67;83.63;96556.84;30001;982;1882;-59
2022/06/23 00:23:24;;;;;;;;;;;;;;;18.67;83.60;96548.59;30001;982;1882;-60
2022/06/23 00:23:59;;;;;;;;;;;;;;;18.64;83.66;96548.50;30001;982;1878;-60
2022/06/23 00:24:33;;;;;;;;;;;;;;;18.59;83.99;96546.78;30001;983;1882;-59
2022/06/23 00:25:06;;;;;;;;;;;;;;;18.56;84.26;96554.94;30001;983;1882;-61
2022/06/23 00:25:45;;;;;;;;;;;;;;;18.54;84.36;96549.00;30001;983;1882;-59
2022/06/23 00:26:26;;;;;;;;;;;;;;;18.53;84.59;96548.19;30001;983;1765;-60
2022/06/23 00:26:59;;;;;;;;;;;;;;;18.53;84.58;96550.94;30001;983;1860;-59
2022/06/23 00:27:31;;;;;;;;;;;;;;;18.52;84.18;96543.03;30001;983;1882;-59
2022/06/23 00:28:03;;;;;;;;;;;;;;;18.53;84.17;96553.69;30001;983;1882;-59
2022/06/23 00:28:35;;;;;;;;;;;;;;;18.52;84.26;96549.34;30001;983;1869;-60
2022/06/23 00:29:13;;;;;;;;;;;;;;;18.50;84.07;96546.16;30001;982;1874;-59
2022/06/23 00:29:45;;;;;;;;;;;;;;;18.52;84.22;96546.59;30001;982;1882;-60
2022/06/23 00:30:20;;;;;;;;;;;;;;;18.54;84.14;96546.25;30001;982;1882;-60
2022/06/23 00:30:53;;;;;;;;;;;;;;;18.55;83.94;96548.63;30001;982;1869;-59
2022/06/23 00:31:35;;;;;;;;;;;;;;;18.55;84.09;96548.63;30001;982;1874;-61
2022/06/23 00:32:10;;;;;;;;;;;;;;;18.54;83.80;96547.03;30001;983;1881;-72
2022/06/23 00:32:40;;;;;;;;;;;;;;;18.52;84.13;96549.34;30001;983;1882;-59
2022/06/23 00:33:19;;;;;;;;;;;;;;;18.49;84.15;96549.25;30001;983;1882;-71
2022/06/23 00:33:50;;;;;;;;;;;;;;;18.47;84.16;96557.84;30001;983;1869;-59
2022/06/23 00:34:23;;;;;;;;;;;;;;;18.46;84.48;96553.50;30001;983;1873;-59
2022/06/23 00:34:58;;;;;;;;;;;;;;;18.44;84.74;96550.28;30001;983;1882;-73
2022/06/23 00:35:29;;;;;;;;;;;;;;;18.42;84.75;96552.59;30001;983;1882;-59
2022/06/23 00:36:00;;;;;;;;;;;;;;;18.40;85.34;96555.69;30001;983;1869;-59
2022/06/23 00:36:38;;;;;;;;;;;;;;;18.37;85.62;96552.84;30001;982;1874;-59
2022/06/23 00:37:14;;;;;;;;;;;;;;;18.34;85.59;96553.56;30001;982;1882;-59
2022/06/23 00:37:50;;;;;;;;;;;;;;;18.33;85.56;96558.28;30001;982;1882;-61
2022/06/23 00:38:24;;;;;;;;;;;;;;;18.33;85.59;96560.22;30001;982;1883;-72
2022/06/23 00:38:55;;;;;;;;;;;;;;;18.30;85.57;96558.97;30001;982;1882;-59
2022/06/23 00:39:34;;;;;;;;;;;;;;;18.31;85.83;96559.75;30001;983;1882;-59
2022/06/23 00:40:07;;;;;;;;;;;;;;;18.28;86.42;96554.97;30001;983;1882;-71
2022/06/23 00:40:42;;;;;;;;;;;;;;;18.26;86.86;96560.00;30001;983;1882;-59
2022/06/23 00:41:17;;;;;;;;;;;;;;;18.22;86.60;96564.59;30001;983;1869;-60
2022/06/23 00:41:50;;;;;;;;;;;;;;;18.20;86.80;96564.94;30001;983;1873;-71
2022/06/23 00:42:24;;;;;;;;;;;;;;;18.19;86.72;96557.06;30001;983;1882;-59
2022/06/23 00:43:01;;;;;;;;;;;;;;;18.18;86.80;96566.44;30001;983;1882;-60
2022/06/23 00:43:32;;;;;;;;;;;;;;;18.16;86.65;96563.25;30001;987;1878;-58
2022/06/23 00:44:06;;;;;;;;;;;;;;;18.15;87.03;96567.16;30001;983;1882;-59
2022/06/23 00:44:41;;;;;;;;;;;;;;;18.13;86.99;96566.69;30001;982;1882;-61
2022/06/23 00:45:26;;;;;;;;;;;;;;;18.12;86.95;96567.84;30001;982;1882;-59
2022/06/23 00:46:09;;;;;;;;;;;;;;;18.11;87.02;96566.25;30001;982;1869;-61
2022/06/23 00:46:43;;;;;;;;;;;;;;;18.08;87.25;96565.78;30001;983;1873;-59
2022/06/23 00:47:18;;;;;;;;;;;;;;;18.06;87.23;96565.34;30001;983;1882;-71
2022/06/23 00:48:04;;;;;;;;;;;;;;;18.06;87.43;96570.84;30001;957;1895;-58
2022/06/23 00:48:37;;;;;;;;;;;;;;;18.05;87.19;96569.22;30001;983;1860;-59
2022/06/23 00:49:13;;;;;;;;;;;;;;;18.05;87.36;96566.47;30001;983;1882;-60
2022/06/23 00:50:16;;;;;;;;;;;;;;;18.05;86.87;96563.75;30001;983;1882;-59
2022/06/23 00:50:49;;;;;;;;;;;;;;;18.04;87.02;96562.16;30001;983;1860;-60
2022/06/23 00:51:36;;;;;;;;;;;;;;;18.03;86.72;96565.22;30001;986;1865;-71
2022/06/23 00:52:19;;;;;;;;;;;;;;;18.02;87.13;96563.63;30001;982;1878;-73
2022/06/23 00:52:54;;;;;;;;;;;;;;;17.99;87.20;96565.16;30001;982;1832;-71
2022/06/23 00:53:30;;;;;;;;;;;;;;;17.98;87.41;96562.75;30001;982;1878;-59
2022/06/23 00:54:14;;;;;;;;;;;;;;;17.96;87.49;96559.56;30001;982;1878;-59
2022/06/23 00:54:48;;;;;;;;;;;;;;;17.94;87.80;96562.66;30001;983;1864;-73
2022/06/23 00:55:27;;;;;;;;;;;;;;;17.92;87.72;96564.16;30001;983;1869;-60
2022/06/23 00:56:15;;;;;;;;;;;;;;;17.91;87.93;96557.84;30001;983;1877;-60
2022/06/23 00:57:06;;;;;;;;;;;;;;;17.90;87.53;96558.22;30001;983;1878;-60
2022/06/23 00:57:40;;;;;;;;;;;;;;;17.89;87.93;96559.34;30001;983;1873;-59
2022/06/23 00:58:31;;;;;;;;;;;;;;;17.88;87.54;96558.56;30001;983;1878;-60
2022/06/23 00:59:05;;;;;;;;;;;;;;;17.87;87.88;96554.22;30001;982;1878;-59
2022/06/23 00:59:50;;;;;;;;;;;;;;;17.86;87.82;96555.34;30001;982;1865;-60
2022/06/23 01:00:23;;;;;;;;;;;;;;;17.86;88.14;96558.09;30001;961;1781;-59
2022/06/23 01:00:58;;;;;;;;;;;;;;;17.85;87.92;96553.75;30001;982;1865;-59
2022/06/23 01:01:41;;;;;;;;;;;;;;;17.85;88.12;96555.69;30001;982;1789;-60
2022/06/23 01:02:14;;;;;;;;;;;;;;;17.84;88.00;96554.91;30001;983;1877;-59
2022/06/23 01:02:51;;;;;;;;;;;;;;;17.85;88.15;96553.75;30001;983;1877;-59
2022/06/23 01:03:36;;;;;;;;;;;;;;;17.85;87.84;96550.22;30001;983;1877;-59
2022/06/23 01:04:21;;;;;;;;;;;;;;;17.85;87.73;96553.75;30001;983;1864;-60
2022/06/23 01:05:23;;;;;;;;;;;;;;;17.85;87.81;96548.28;30001;983;1869;-60
2022/06/23 01:05:57;;;;;;;;;;;;;;;17.85;87.78;96548.28;30001;982;1874;-61
2022/06/23 01:06:44;;;;;;;;;;;;;;;17.86;87.98;96552.62;30001;982;1865;-58
2022/06/23 01:07:41;;;;;;;;;;;;;;;17.87;87.89;96545.97;30001;982;1869;-59
2022/06/23 01:08:21;;;;;;;;;;;;;;;17.89;87.35;96542.88;30001;982;1874;-59
2022/06/23 01:09:10;;;;;;;;;;;;;;;17.90;87.44;96545.28;30001;982;1878;-69
2022/06/23 01:09:48;;;;;;;;;;;;;;;17.91;87.12;96552.38;30001;983;1873;-60
2022/06/23 01:10:33;;;;;;;;;;;;;;;17.93;87.49;96552.81;30001;983;1877;-59
2022/06/23 01:11:07;;;;;;;;;;;;;;;17.96;86.86;96560.38;30001;983;1877;-59
2022/06/23 01:11:41;;;;;;;;;;;;;;;18.00;86.79;96560.47;30001;983;1864;-60
2022/06/23 01:12:33;;;;;;;;;;;;;;;18.00;86.62;96555.78;30001;983;1869;-60
2022/06/23 01:13:12;;;;;;;;;;;;;;;18.02;86.69;96561.69;30001;983;1878;-59
2022/06/23 01:14:02;;;;;;;;;;;;;;;18.00;86.55;96572.25;30001;982;1878;-60
2022/06/23 01:14:40;;;;;;;;;;;;;;;17.98;86.66;96566.31;30001;982;1869;-59
2022/06/23 01:15:18;;;;;;;;;;;;;;;17.96;86.72;96576.84;30001;982;1878;-61
2022/06/23 01:15:51;;;;;;;;;;;;;;;17.95;86.91;96569.75;30001;982;1865;-59
2022/06/23 01:16:24;;;;;;;;;;;;;;;17.93;87.12;96572.03;30001;982;1869;-58
2022/06/23 01:17:04;;;;;;;;;;;;;;;17.93;87.07;96572.03;30001;983;1877;-60
2022/06/23 01:17:40;;;;;;;;;;;;;;;17.92;86.82;96575.94;30001;983;1877;-61
2022/06/23 01:18:24;;;;;;;;;;;;;;;17.92;86.99;96573.19;30001;983;1877;-60
2022/06/23 01:19:15;;;;;;;;;;;;;;;17.91;87.13;96577.06;30001;983;1878;-60
2022/06/23 01:20:09;;;;;;;;;;;;;;;17.90;87.29;96580.97;30001;983;1873;-60
2022/06/23 01:21:00;;;;;;;;;;;;;;;17.89;87.21;96587.59;30001;983;1873;-60
2022/06/23 01:21:37;;;;;;;;;;;;;;;17.90;87.34;96583.72;30001;982;1865;-60
2022/06/23 01:22:16;;;;;;;;;;;;;;;17.88;87.36;96580.50;30001;982;1856;-60
2022/06/23 01:22:59;;;;;;;;;;;;;;;17.88;87.60;96586.00;30001;982;1878;-61
2022/06/23 01:23:49;;;;;;;;;;;;;;;17.88;87.27;96585.19;30001;982;1878;-61
2022/06/23 01:24:43;;;;;;;;;;;;;;;17.89;87.35;96586.81;30001;983;1869;-60
2022/06/23 01:25:33;;;;;;;;;;;;;;;17.87;87.68;96589.88;30001;983;1873;-60
2022/06/23 01:26:22;;;;;;;;;;;;;;;17.88;87.82;96596.97;30001;983;1873;-59
2022/06/23 01:27:00;;;;;;;;;;;;;;;17.86;88.01;96588.28;30001;983;1864;-60
2022/06/23 01:27:49;;;;;;;;;;;;;;;17.86;88.06;96588.28;30001;983;1869;-59
2022/06/23 01:28:23;;;;;;;;;;;;;;;17.87;88.12;96595.38;30001;986;1870;-60
2022/06/23 01:29:12;;;;;;;;;;;;;;;17.86;87.70;96599.28;30001;982;1860;-59
2022/06/23 01:29:57;;;;;;;;;;;;;;;17.86;88.06;96596.53;30001;982;1861;-60
2022/06/23 01:30:36;;;;;;;;;;;;;;;17.86;87.97;96599.28;30001;982;1867;-60
2022/06/23 01:31:23;;;;;;;;;;;;;;;17.86;87.53;96604.75;30001;983;1877;-70
2022/06/23 01:31:56;;;;;;;;;;;;;;;17.86;87.79;96593.78;30001;983;1877;-59
2022/06/23 01:32:30;;;;;;;;;;;;;;;17.87;87.68;96598.12;30001;983;1877;-60
2022/06/23 01:33:20;;;;;;;;;;;;;;;17.86;88.25;96596.53;30001;957;1903;-60
2022/06/23 01:33:57;;;;;;;;;;;;;;;17.86;88.16;96598.47;30001;983;1864;-72
2022/06/23 01:34:40;;;;;;;;;;;;;;;17.85;88.47;96585.91;30001;983;1760;-71
2022/06/23 01:35:18;;;;;;;;;;;;;;;17.84;88.13;96592.53;30001;983;1878;-59
2022/06/23 01:36:10;;;;;;;;;;;;;;;17.83;88.25;96591.72;30001;983;1878;-60
2022/06/23 01:36:44;;;;;;;;;;;;;;;17.84;88.02;96606.25;30001;983;1878;-71
2022/06/23 01:37:19;;;;;;;;;;;;;;;17.84;88.27;96607.03;30001;982;1878;-59
2022/06/23 01:38:08;;;;;;;;;;;;;;;17.84;88.11;96607.03;30001;982;1865;-60
2022/06/23 01:38:54;;;;;;;;;;;;;;;17.83;88.32;96615.63;30001;983;1864;-60
2022/06/23 01:39:45;;;;;;;;;;;;;;;17.82;88.11;96603.84;30002;983;1877;-61
2022/06/23 01:40:19;;;;;;;;;;;;;;;17.82;87.95;96605.78;30002;983;1860;-59
2022/06/23 01:40:59;;;;;;;;;;;;;;;17.82;87.99;96586.59;30002;983;1869;-72
2022/06/23 01:41:37;;;;;;;;;;;;;;;17.82;88.41;96603.84;30002;983;1873;-59
2022/06/23 01:42:18;;;;;;;;;;;;;;;17.82;nan;96605.78;30002;983;1878;-59
2022/06/23 01:43:07;;;;;;;;;;;;;;;17.81;88.50;96595.97;30002;983;1878;-59
2022/06/23 01:43:41;;;;;;;;;;;;;;;17.79;88.38;96599.03;30002;984;1864;-58
2022/06/23 01:44:27;;;;;;;;;;;;;;;17.79;88.24;96603.75;30002;982;1860;-59
2022/06/23 01:45:01;;;;;;;;;;;;;;;17.80;88.54;96600.66;30002;982;1882;-60
2022/06/23 01:45:35;;;;;;;;;;;;;;;17.79;88.29;96603.75;30002;982;1869;-58
2022/06/23 01:46:12;;;;;;;;;;;;;;;17.79;88.50;96603.75;30002;982;1874;-58
2022/06/23 01:46:46;;;;;;;;;;;;;;;17.78;88.48;96597.44;30002;983;1882;-71
2022/06/23 01:47:27;;;;;;;;;;;;;;;17.78;88.25;96600.19;30002;983;1882;-59
2022/06/23 01:48:51;;;;;;;;;;;;;;;17.79;88.36;96603.75;30002;986;1878;-59
2022/06/23 01:49:34;;;;;;;;;;;;;;;17.79;87.88;96593.56;30002;983;1860;-70
2022/06/23 01:50:34;;;;;;;;;;;;;;;17.79;88.13;96598.25;30002;983;1864;-58
2022/06/23 01:51:05;;;;;;;;;;;;;;;17.73;88.58;96595.75;30002;983;1873;-60
2022/06/23 01:51:50;;;;;;;;;;;;;;;17.73;88.69;96594.94;30002;982;1878;-59
2022/06/23 01:52:22;;;;;;;;;;;;;;;17.71;88.78;96594.47;30002;982;1878;-60
2022/06/23 01:53:04;;;;;;;;;;;;;;;17.71;88.68;96594.47;30002;982;1878;-60
2022/06/23 01:53:35;;;;;;;;;;;;;;;17.73;88.39;96600.44;30002;982;1878;-59
2022/06/23 01:54:16;;;;;;;;;;;;;;;17.74;87.85;96600.09;30002;983;1877;-59
2022/06/23 01:54:52;;;;;;;;;;;;;;;17.77;88.25;96606.81;30002;983;1864;-60
2022/06/23 01:55:27;;;;;;;;;;;;;;;17.75;87.85;96604.44;30002;983;1869;-59
2022/06/23 01:56:07;;;;;;;;;;;;;;;17.75;88.14;96598.12;30002;983;1877;-60
2022/06/23 01:56:58;;;;;;;;;;;;;;;17.73;88.24;96597.69;30002;983;1878;-58
2022/06/23 01:57:36;;;;;;;;;;;;;;;17.67;88.89;96607.31;30002;983;1873;-58
2022/06/23 01:58:10;;;;;;;;;;;;;;;17.67;88.29;96597.12;30002;983;1878;-60
2022/06/23 01:58:48;;;;;;;;;;;;;;;17.67;88.24;96601.84;30002;983;1878;-71
2022/06/23 01:59:24;;;;;;;;;;;;;;;17.64;88.51;96602.50;30002;982;1878;-59
2022/06/23 02:00:18;;;;;;;;;;;;;;;17.61;88.89;96603.97;30002;986;1865;-61
2022/06/23 02:00:50;;;;;;;;;;;;;;;17.59;88.45;96600.78;30002;982;1869;-60
2022/06/23 02:01:27;;;;;;;;;;;;;;;17.60;88.48;96596.09;30002;983;1877;-60
2022/06/23 02:02:30;;;;;;;;;;;;;;;17.60;88.68;96596.09;30002;983;1877;-58
2022/06/23 02:03:13;;;;;;;;;;;;;;;17.63;88.38;96595.41;30002;983;1873;-59
2022/06/23 02:03:47;;;;;;;;;;;;;;;17.64;88.38;96597.81;30002;983;1878;-60
2022/06/23 02:04:32;;;;;;;;;;;;;;;17.64;88.40;96597.00;30002;983;1878;-59
2022/06/23 02:05:25;;;;;;;;;;;;;;;17.65;88.66;96593.16;30002;983;1865;-59
2022/06/23 02:06:03;;;;;;;;;;;;;;;17.65;88.39;96599.44;30002;982;1869;-59
2022/06/23 02:06:41;;;;;;;;;;;;;;;17.66;88.34;96594.75;30002;982;1878;-59
2022/06/23 02:07:50;;;;;;;;;;;;;;;17.67;88.77;96599.09;30002;982;1878;-60
2022/06/23 02:08:56;;;;;;;;;;;;;;;17.66;88.58;96600.25;30002;982;1874;-59
2022/06/23 02:09:33;;;;;;;;;;;;;;;17.63;88.63;96598.16;30002;983;1860;-58
2022/06/23 02:10:18;;;;;;;;;;;;;;;17.62;88.79;96604.78;30002;983;1869;-59
2022/06/23 02:10:52;;;;;;;;;;;;;;;17.59;88.95;96595.28;30002;986;1873;-59
2022/06/23 02:11:32;;;;;;;;;;;;;;;17.60;88.91;96607.06;30002;983;1878;-59
2022/06/23 02:12:11;;;;;;;;;;;;;;;17.60;88.56;96601.59;30002;983;1878;-61
2022/06/23 02:12:44;;;;;;;;;;;;;;;17.59;88.51;96610.94;30002;983;1864;-59
2022/06/23 02:13:23;;;;;;;;;;;;;;;17.57;88.90;96600.31;30002;982;1869;-59
2022/06/23 02:14:11;;;;;;;;;;;;;;;17.56;88.65;96600.66;30002;962;1885;-59
2022/06/23 02:14:54;;;;;;;;;;;;;;;17.53;88.80;96606.84;30002;986;1869;-72
2022/06/23 02:15:34;;;;;;;;;;;;;;;17.51;89.51;96604.44;30002;982;1878;-59
2022/06/23 02:16:10;;;;;;;;;;;;;;;17.47;89.57;96614.50;30002;985;1878;-60
2022/06/23 02:16:52;;;;;;;;;;;;;;;17.48;89.35;96607.88;30002;983;1877;-59
2022/06/23 02:17:31;;;;;;;;;;;;;;;17.46;89.51;96609.34;30002;983;1877;-60
2022/06/23 02:18:11;;;;;;;;;;;;;;;17.47;89.48;96605.47;30002;983;1877;-61
2022/06/23 02:18:49;;;;;;;;;;;;;;;17.46;89.71;96601.94;30002;983;1878;-59
2022/06/23 02:19:40;;;;;;;;;;;;;;;17.45;89.34;96608.56;30002;983;1865;-71
2022/06/23 02:20:29;;;;;;;;;;;;;;;17.43;89.51;96608.91;30002;983;1869;-59
2022/06/23 02:21:04;;;;;;;;;;;;;;;17.43;89.67;96603.41;30002;982;1869;-58
2022/06/23 02:21:43;;;;;;;;;;;;;;;17.41;89.93;96600.22;30002;982;1878;-59
2022/06/23 02:22:19;;;;;;;;;;;;;;;17.40;89.81;96604.09;30002;982;1878;-59
2022/06/23 02:22:59;;;;;;;;;;;;;;;17.39;89.89;96605.25;30002;982;1878;-59
2022/06/23 02:23:50;;;;;;;;;;;;;;;17.37;89.89;96604.78;30002;982;1878;-59
2022/06/23 02:24:31;;;;;;;;;;;;;;;17.36;90.05;96597.69;30002;983;1860;-59
2022/06/23 02:25:34;;;;;;;;;;;;;;;17.36;89.86;96603.19;30002;983;1743;-59
2022/06/23 02:26:27;;;;;;;;;;;;;;;17.38;90.26;96603.63;30002;958;1898;-59
2022/06/23 02:27:07;;;;;;;;;;;;;;;17.49;89.67;96600.44;30002;983;1878;-58
2022/06/23 02:27:58;;;;;;;;;;;;;;;17.52;89.64;96602.50;30002;983;1865;-69
2022/06/23 02:28:36;;;;;;;;;;;;;;;17.53;89.42;96601.34;30002;982;1852;-59
2022/06/23 02:29:23;;;;;;;;;;;;;;;17.53;89.39;96604.09;30002;982;1865;-59
2022/06/23 02:30:04;;;;;;;;;;;;;;;17.51;89.31;96606.38;30002;982;1869;-59
2022/06/23 02:30:39;;;;;;;;;;;;;;;17.48;89.61;96601.59;30001;982;1865;-70
2022/06/23 02:31:16;;;;;;;;;;;;;;;17.45;89.89;96610.50;30002;982;1869;-59
2022/06/23 02:31:55;;;;;;;;;;;;;;;17.43;89.78;96613.59;30001;983;1877;-59
2022/06/23 02:32:42;;;;;;;;;;;;;;;17.41;89.87;96611.19;30001;983;1877;-59
2022/06/23 02:33:26;;;;;;;;;;;;;;;17.40;89.87;96606.84;30001;983;1877;-59
2022/06/23 02:34:19;;;;;;;;;;;;;;;17.40;89.64;96604.09;30001;983;1878;-59
2022/06/23 02:35:02;;;;;;;;;;;;;;;17.40;90.03;96612.31;30001;983;1873;-59
2022/06/23 02:35:57;;;;;;;;;;;;;;;17.40;89.82;96617.00;30001;983;1865;-59
2022/06/23 02:36:54;;;;;;;;;;;;;;;17.41;89.73;96615.88;30001;982;1869;-59
2022/06/23 02:37:43;;;;;;;;;;;;;;;17.40;89.63;96614.25;30001;986;1873;-59
2022/06/23 02:38:40;;;;;;;;;;;;;;;17.38;89.48;96611.06;30001;983;1869;-60
2022/06/23 02:39:29;;;;;;;;;;;;;;;17.38;89.94;96616.56;30001;983;1873;-58
2022/06/23 02:40:00;;;;;;;;;;;;;;;17.40;89.75;96609.56;30001;983;1869;-58
2022/06/23 02:40:51;;;;;;;;;;;;;;;17.41;89.52;96608.44;30001;983;1864;-58
2022/06/23 02:41:28;;;;;;;;;;;;;;;17.43;89.73;96613.59;30001;987;1865;-58
2022/06/23 02:42:01;;;;;;;;;;;;;;;17.41;89.40;96608.44;30001;983;1873;-58
2022/06/23 02:42:36;;;;;;;;;;;;;;;17.39;89.90;96607.97;30001;983;1878;-59
2022/06/23 02:43:15;;;;;;;;;;;;;;;17.37;89.87;96610.25;30001;983;1878;-70
2022/06/23 02:43:52;;;;;;;;;;;;;;;17.35;89.81;96607.06;30001;982;1878;-59
2022/06/23 02:44:42;;;;;;;;;;;;;;;17.33;89.89;96612.09;30001;982;1865;-59
2022/06/23 02:45:33;;;;;;;;;;;;;;;17.33;90.32;96612.09;30001;982;1861;-69
2022/06/23 02:46:32;;;;;;;;;;;;;;;17.31;90.27;96611.66;30001;983;1873;-59
2022/06/23 02:47:12;;;;;;;;;;;;;;;17.30;90.33;96610.06;30001;983;1873;-71
2022/06/23 02:48:14;;;;;;;;;;;;;;;17.31;90.35;96608.91;30001;983;1877;-59
2022/06/23 02:49:01;;;;;;;;;;;;;;;17.32;90.06;96607.78;30001;983;1873;-60
2022/06/23 02:49:44;;;;;;;;;;;;;;;17.34;90.25;96615.63;30001;983;1865;-67
2022/06/23 02:50:41;;;;;;;;;;;;;;;17.35;90.29;96609.81;30001;983;1869;-59
2022/06/23 02:51:30;;;;;;;;;;;;;;;17.36;89.92;96611.41;30001;982;1873;-59
2022/06/23 02:52:24;;;;;;;;;;;;;;;17.37;90.00;96609.47;30001;982;1869;-59
2022/06/23 02:53:15;;;;;;;;;;;;;;;17.38;89.69;96613.81;30001;982;1878;-60
2022/06/23 02:54:06;;;;;;;;;;;;;;;17.36;89.85;96616.87;30001;977;1892;-69
2022/06/23 02:54:50;;;;;;;;;;;;;;;17.36;90.23;96614.16;30001;983;1860;-58
2022/06/23 02:55:32;;;;;;;;;;;;;;;17.36;89.87;96616.09;30001;983;1869;-61
2022/06/23 02:56:25;;;;;;;;;;;;;;;17.34;89.66;96616.44;30001;983;1878;-59
2022/06/23 02:57:34;;;;;;;;;;;;;;;17.34;90.15;96621.91;30001;983;1873;-67
2022/06/23 02:58:13;;;;;;;;;;;;;;;17.34;90.12;96627.41;30001;983;1873;-60
2022/06/23 02:58:55;;;;;;;;;;;;;;;17.35;90.30;96625.47;30001;982;1878;-58
2022/06/23 02:59:48;;;;;;;;;;;;;;;17.35;90.21;96629.00;30001;982;1878;-57
2022/06/23 03:00:39;;;;;;;;;;;;;;;17.34;89.95;96627.41;30001;982;1865;-60
2022/06/23 03:01:14;;;;;;;;;;;;;;;17.33;89.97;96634.03;30001;983;1851;-58
2022/06/23 03:01:53;;;;;;;;;;;;;;;17.34;90.04;96627.41;30001;983;1877;-59
2022/06/23 03:02:46;;;;;;;;;;;;;;;17.33;89.89;96628.53;30001;983;1877;-59
2022/06/23 03:03:25;;;;;;;;;;;;;;;17.34;90.29;96632.09;30001;983;1873;-60
2022/06/23 03:04:05;;;;;;;;;;;;;;;17.34;90.21;96624.66;30001;983;1878;-59
2022/06/23 03:04:46;;;;;;;;;;;;;;;17.34;90.21;96634.81;30002;979;1784;-59
2022/06/23 03:05:27;;;;;;;;;;;;;;;17.34;89.96;96632.09;30001;983;1878;-59
2022/06/23 03:06:01;;;;;;;;;;;;;;;17.32;89.90;96629.72;30001;982;1878;-69
2022/06/23 03:06:43;;;;;;;;;;;;;;;17.31;90.16;96628.12;30001;982;1865;-59
2022/06/23 03:07:37;;;;;;;;;;;;;;;17.31;90.29;96628.12;30001;982;1869;-70
2022/06/23 03:08:26;;;;;;;;;;;;;;;17.29;90.32;96624.13;30001;982;1874;-59
2022/06/23 03:09:00;;;;;;;;;;;;;;;17.28;90.15;96623.31;30001;983;1869;-59
2022/06/23 03:09:35;;;;;;;;;;;;;;;17.29;90.40;96637.81;30001;983;1877;-69
2022/06/23 03:10:25;;;;;;;;;;;;;;;17.28;90.48;96628.00;30001;983;1810;-59
2022/06/23 03:11:03;;;;;;;;;;;;;;;17.29;90.23;96641.38;30001;983;1869;-59
2022/06/23 03:11:52;;;;;;;;;;;;;;;17.28;90.64;96634.28;30001;962;1899;-59
2022/06/23 03:12:29;;;;;;;;;;;;;;;17.28;90.41;96636.22;30001;983;1878;-57
2022/06/23 03:13:15;;;;;;;;;;;;;;;17.27;90.29;96638.16;30001;982;1878;-59
2022/06/23 03:13:51;;;;;;;;;;;;;;;17.27;90.29;96638.16;30001;982;1846;-59
2022/06/23 03:14:54;;;;;;;;;;;;;;;17.27;90.41;96635.41;30001;982;1878;-60
2022/06/23 03:15:31;;;;;;;;;;;;;;;17.25;90.56;96640.44;30001;982;1861;-59
2022/06/23 03:16:15;;;;;;;;;;;;;;;17.25;90.57;96634.97;30001;985;1868;-60
2022/06/23 03:16:49;;;;;;;;;;;;;;;17.25;90.69;96640.44;30001;983;1877;-59
2022/06/23 03:17:49;;;;;;;;;;;;;;;17.26;90.80;96642.03;30001;983;1877;-60
2022/06/23 03:18:22;;;;;;;;;;;;;;;17.29;90.62;96630.41;30001;983;1873;-58
2022/06/23 03:19:02;;;;;;;;;;;;;;;17.28;90.76;96634.28;30001;983;1878;-59
2022/06/23 03:19:46;;;;;;;;;;;;;;;17.30;90.52;96629.25;30001;983;1878;-58
2022/06/23 03:20:44;;;;;;;;;;;;;;;17.29;90.77;96619.44;30001;982;1801;-59
2022/06/23 03:21:22;;;;;;;;;;;;;;;17.32;90.53;96629.72;30001;982;1860;-70
2022/06/23 03:22:27;;;;;;;;;;;;;;;17.32;90.76;96628.91;30001;982;1870;-71
2022/06/23 03:23:04;;;;;;;;;;;;;;;17.33;90.45;96627.75;30001;982;1874;-59
2022/06/23 03:24:03;;;;;;;;;;;;;;;17.32;90.72;96634.41;30001;983;1877;-59
2022/06/23 03:24:49;;;;;;;;;;;;;;;17.31;90.75;96633.59;30001;983;1873;-70
2022/06/23 03:25:38;;;;;;;;;;;;;;;17.29;90.60;96638.63;30001;983;1864;-71
2022/06/23 03:26:26;;;;;;;;;;;;;;;17.29;90.87;96644.09;30001;983;1860;-70
2022/06/23 03:27:03;;;;;;;;;;;;;;;17.28;90.88;96645.25;30001;983;1878;-60
2022/06/23 03:27:42;;;;;;;;;;;;;;;17.28;91.01;96645.25;30001;983;1878;-60
2022/06/23 03:28:36;;;;;;;;;;;;;;;17.29;91.21;96646.06;30001;982;1878;-67
2022/06/23 03:29:16;;;;;;;;;;;;;;;17.29;90.72;96640.56;30001;982;1873;-70
2022/06/23 03:29:52;;;;;;;;;;;;;;;17.30;90.85;96651.19;30001;982;1878;-69
2022/06/23 03:30:49;;;;;;;;;;;;;;;17.31;90.98;96641.81;30001;983;1864;-70
2022/06/23 03:31:23;;;;;;;;;;;;;;;17.32;90.92;96645.38;30001;983;1864;-71
2022/06/23 03:32:23;;;;;;;;;;;;;;;17.32;90.83;96646.16;30001;983;1877;-68
2022/06/23 03:32:59;;;;;;;;;;;;;;;17.32;91.04;96646.16;30001;983;1873;-71
2022/06/23 03:33:35;;;;;;;;;;;;;;;17.32;91.00;96657.13;30001;983;1864;-59
2022/06/23 03:34:15;;;;;;;;;;;;;;;17.33;91.60;96647.75;30001;983;1869;-59
2022/06/23 03:34:54;;;;;;;;;;;;;;;17.34;91.39;96654.81;30001;983;1878;-59
2022/06/23 03:35:35;;;;;;;;;;;;;;;17.33;91.67;96655.97;30001;982;1878;-69
2022/06/23 03:36:19;;;;;;;;;;;;;;;17.34;91.58;96654.81;30001;982;1865;-60
2022/06/23 03:36:52;;;;;;;;;;;;;;;17.37;91.72;96645.91;30001;982;1869;-67
2022/06/23 03:37:41;;;;;;;;;;;;;;;17.41;91.12;96644.09;30001;982;1878;-69
2022/06/23 03:38:19;;;;;;;;;;;;;;;17.41;91.00;96644.09;30001;983;1873;-70
2022/06/23 03:41:47;;;;;;;;;;;;;;;17.38;91.32;96644.78;30001;983;1882;-71
2022/06/23 03:42:23;;;;;;;;;;;;;;;17.36;91.02;96641.56;30001;983;1882;-59
2022/06/23 03:43:00;;;;;;;;;;;;;;;17.35;91.43;96645.47;30001;982;1869;-70
2022/06/23 03:43:54;;;;;;;;;;;;;;;17.35;91.33;96641.91;30001;982;1873;-59
2022/06/23 03:44:32;;;;;;;;;;;;;;;17.34;91.37;96638.38;30001;982;1878;-69
2022/06/23 03:45:29;;;;;;;;;;;;;;;17.34;91.12;96643.84;30001;975;1889;-68